• Join FlightAware (Why Join?)
  • Login
  • US Flag 
11:00AM EDT


 

Airport Tracker/Info


-or-


 

Live Flight TrackerFlight Track Log ✈ N7711Y ✈ 14-Jul-2013 ✈ KCRX - KCRG

Flight Track Log - Related Links

Times and Time Zones

All times are in EDT time to prevent confusion due to time zone crossing. See the N7711Y flight status page for this flight to view local times or setup timezone preferences in your user account.

Time Position Orientation Groundspeed Altitude Reporting Facility
EDT Latitude Longitude Course Direction KTS MPH feet Rate Location/Type
01:57PM 34.8361 -88.5861 141° Southeast 157 181 3,000  Level Memphis Center
01:58PM 34.8006 -88.5842 177° South 134 154 4,100 1,200 Climbing Memphis Center
01:59PM 34.7711 -88.5672 155° Southeast 122 140 5,400 1,200 Climbing Memphis Center
02:00PM 34.7436 -88.5475 149° Southeast 115 132 6,600 1,200 Climbing Memphis Center
02:01PM 34.7144 -88.5381 165° South 165 190 7,900 1,200 Climbing Memphis Center
02:02PM 34.7696 -88.3561 141° Southeast  Level Estimated
02:02PM 34.6811 -88.5439 188° South 132 152 9,100  Level Memphis Center
02:03PM 34.6500 -88.5544 196° South 120 138 10,200 960 Climbing Memphis Center
02:04PM 34.6167 -88.5653 195° South 127 146 11,100 420 Climbing Memphis Center
02:05PM 34.5711 -88.5789 194° South 147 169 11,100  Level Memphis Center
02:06PM 34.5253 -88.5925 194° South 164 189 11,100  Level Memphis Center
02:07PM 34.4753 -88.6061 193° South 174 200 11,100  Level Memphis Center
02:08PM 34.4297 -88.6197 194° South 179 206 11,100  Level Memphis Center
02:09PM 34.3839 -88.6256 186° South 179 206 11,100  Level Memphis Center
02:10PM 34.3622 -88.5733 117° Southeast 142 163 11,100 -60 Level Memphis Center
02:11PM 34.3386 -88.5258 121° Southeast 142 163 11,000  Descending Memphis Center
02:12PM 34.3150 -88.4761 120° Southeast 155 178 11,100  Climbing Memphis Center
02:13PM 34.2933 -88.4289 119° Southeast 160 184 11,100  Level Memphis Center
02:14PM 34.2717 -88.3817 119° Southeast 160 184 11,100  Level Memphis Center
02:15PM 34.2500 -88.3369 120° Southeast 160 184 11,100  Level Memphis Center
02:16PM 34.2264 -88.2897 121° Southeast 160 184 11,100  Level Memphis Center
02:17PM 34.2067 -88.2425 117° Southeast 165 190 11,100  Level Memphis Center
02:18PM 34.1831 -88.1928 120° Southeast 182 209 11,100  Level Memphis Center
02:19PM 34.1614 -88.1456 119° Southeast 171 197 11,100  Level Memphis Center
02:20PM 34.1397 -88.1011 120° Southeast 161 185 11,100  Level Memphis Center
02:21PM 34.1178 -88.0539 119° Southeast 161 185 11,100 -180 Level Memphis Center
02:21PM 34.1069 -88.0292 118° Southeast 153 176 10,900 -120 Descending Memphis Center
02:22PM 34.0983 -88.0119 121° Southeast 161 185 11,000  Climbing Memphis Center
02:22PM 34.0875 -87.9844 115° Southeast 151 174 10,900 -120 Descending Memphis Center
02:23PM 34.0658 -87.9475 125° Southeast 149 171 10,900 60 Level Memphis Center
02:24PM 34.0508 -87.9306 137° Southeast 155 178 11,000  Climbing Memphis Center
02:24PM 34.0336 -87.9083 133° Southeast 146 168 10,900 -120 Descending Memphis Center
02:25PM 34.0081 -87.8764 134° Southeast 151 174 10,900 60 Level Memphis Center
02:26PM 33.9889 -87.8544 136° Southeast 155 178 11,000  Climbing Memphis Center
02:26PM 33.9758 -87.8322 125° Southeast 153 176 10,900 -120 Descending Memphis Center
02:27PM 33.9419 -87.8058 147° Southeast 150 173 10,900  Level Memphis Center
02:28PM 33.9078 -87.7767 145° Southeast 151 174 10,900  Level Memphis Center
02:29PM 33.8717 -87.7453 144° Southeast 152 175 10,900  Level Memphis Center
02:30PM 33.8378 -87.7139 142° Southeast 152 175 10,900  Level Memphis Center
02:31PM 33.8017 -87.6825 144° Southeast 152 175 10,900  Level Memphis Center
02:32PM 33.7633 -87.6511 146° Southeast 152 175 10,900  Level Memphis Center
02:33PM 33.7253 -87.6272 152° Southeast 153 176 10,900  Level Memphis Center
02:35PM 33.6894 -87.6086 157° South 150 173 10,900  Level Memphis Center
02:36PM 33.6514 -87.5897 158° South 151 174 10,900  Level Memphis Center
02:37PM 33.6111 -87.5611 149° Southeast 154 177 10,900 300 Level Memphis Center
02:39PM 33.5411 -87.4956 142° Southeast 145 167 11,900 420 Climbing Atlanta Center
02:40PM 33.5217 -87.4525 118° Southeast 140 161 12,300 360 Climbing Atlanta Center
02:41PM 33.5039 -87.4119 118° Southeast 140 161 12,700 360 Climbing Atlanta Center
02:42PM 33.4819 -87.3711 123° Southeast 140 161 13,100 180 Climbing Atlanta Center
02:43PM 33.4622 -87.3281 119° Southeast 146 168 13,100  Level Atlanta Center
02:44PM 33.4406 -87.2875 123° Southeast 151 174 13,100  Level Atlanta Center
02:45PM 33.4167 -87.2417 122° Southeast 151 174 13,100  Level Atlanta Center
02:46PM 33.3947 -87.2011 123° Southeast 151 174 13,100  Level Atlanta Center
02:47PM 33.3750 -87.1533 116° Southeast 151 174 13,100  Level Atlanta Center
02:48PM 33.3511 -87.1100 123° Southeast 151 174 13,100  Level Atlanta Center
02:49PM 33.3314 -87.0647 118° Southeast 151 174 13,100  Level Atlanta Center
02:50PM 33.3075 -87.0189 122° Southeast 151 174 13,100  Level Atlanta Center
02:51PM 33.2833 -86.9758 124° Southeast 146 168 13,100  Level Atlanta Center
02:52PM 33.2617 -86.9281 118° Southeast 146 168 13,100  Level Atlanta Center
02:53PM 33.2394 -86.8850 122° Southeast 151 174 13,100  Level Atlanta Center
02:54PM 33.2156 -86.8422 124° Southeast 151 174 13,100  Level Atlanta Center
02:55PM 33.1936 -86.7942 119° Southeast 151 174 13,100  Level Atlanta Center
02:56PM 33.1717 -86.7514 121° Southeast 151 174 13,100  Level Atlanta Center
02:57PM 33.1475 -86.7058 122° Southeast 151 174 13,100  Level Atlanta Center
02:58PM 33.1256 -86.6606 120° Southeast 151 174 13,100  Level Atlanta Center
02:59PM 33.1017 -86.6128 121° Southeast 151 174 13,100  Level Atlanta Center
03:00PM 33.0794 -86.5700 122° Southeast 151 174 13,100  Level Atlanta Center
03:01PM 33.0553 -86.5222 121° Southeast 151 174 13,100  Level Atlanta Center
03:02PM 33.0333 -86.4769 120° Southeast 151 174 13,100  Level Atlanta Center
03:03PM 33.0133 -86.4392 122° Southeast 151 174 13,100  Level Atlanta Center
03:04PM 32.9911 -86.3917 119° Southeast 151 174 13,100  Level Atlanta Center
03:05PM 32.9669 -86.3464 122° Southeast 156 180 13,100  Level Atlanta Center
03:06PM 32.9428 -86.3011 122° Southeast 156 180 13,200  Climbing Atlanta Center
03:07PM 32.9186 -86.2536 121° Southeast 156 180 13,200  Level Atlanta Center
03:08PM 32.8964 -86.2083 120° Southeast 156 180 13,200  Level Atlanta Center
03:09PM 32.8764 -86.1658 119° Southeast 156 180 13,200  Level Atlanta Center
03:10PM 32.8500 -86.1183 123° Southeast 161 185 13,200  Level Atlanta Center
03:11PM 32.8214 -86.0781 130° Southeast 161 185 13,200  Level Atlanta Center
03:12PM 32.7950 -86.0381 128° Southeast 161 185 13,200 -60 Level Atlanta Center
03:14PM 32.7378 -85.9575 130° Southeast 161 185 13,100 -60 Descending Atlanta Center
03:15PM 32.7133 -85.9103 122° Southeast 161 185 13,100  Level Atlanta Center
03:17PM 32.6667 -85.8203 122° Southeast 161 185 13,100  Level Atlanta Center
03:18PM 32.6444 -85.7731 119° Southeast 161 185 13,100  Level Atlanta Center
03:19PM 32.6200 -85.7281 123° Southeast 161 185 13,100  Level Atlanta Center
03:20PM 32.5978 -85.6808 119° Southeast 166 191 13,100  Level Atlanta Center
03:21PM 32.5753 -85.6361 121° Southeast 166 191 13,100  Level Atlanta Center
03:22PM 32.5508 -85.5889 122° Southeast 166 191 13,100  Level Atlanta Center
03:23PM 32.5286 -85.5417 119° Southeast 166 191 13,100  Level Atlanta Center
03:24PM 32.5039 -85.4994 125° Southeast 166 191 13,100  Level Atlanta Center
03:25PM 32.4794 -85.4522 122° Southeast 166 191 13,100  Level Atlanta Center
03:26PM 32.4550 -85.4075 123° Southeast 161 185 13,100  Level Atlanta Center
03:27PM 32.4325 -85.3603 119° Southeast 161 185 13,100  Level Atlanta Center
03:28PM 32.4081 -85.3158 123° Southeast 161 185 13,100  Level Atlanta Center
03:29PM 32.3875 -85.2711 119° Southeast 161 185 13,100  Level Atlanta Center
03:30PM 32.3608 -85.2264 125° Southeast 166 191 13,100  Level Atlanta Center
03:31PM 32.3403 -85.1819 119° Southeast 166 191 13,100  Level Atlanta Center
03:32PM 32.3158 -85.1375 123° Southeast 166 191 13,100  Level Atlanta Center
03:33PM 32.2931 -85.0956 123° Southeast 161 185 13,100  Level Atlanta Center
03:34PM 32.2686 -85.0483 121° Southeast 161 185 13,100  Level Atlanta Center
03:35PM 32.2417 -84.9992 123° Southeast 156 180 13,100  Level Atlanta Center
03:36PM 32.2192 -84.9619 126° Southeast 156 180 13,100  Level Atlanta Center
03:37PM 32.1986 -84.9175 119° Southeast 156 180 13,100 -60 Level Atlanta Center
03:40PM 32.1256 -84.7742 121° Southeast 155 178 13,000 -60 Descending Jacksonville Center
03:41PM 32.1011 -84.7269 121° Southeast 155 178 13,000  Level Jacksonville Center
03:42PM 32.0767 -84.6847 124° Southeast 161 185 13,000  Level Jacksonville Center
03:43PM 32.0522 -84.6378 122° Southeast 161 185 13,000  Level Jacksonville Center
03:44PM 32.0278 -84.5883 120° Southeast 161 185 13,000  Level Jacksonville Center
03:45PM 32.0033 -84.5414 122° Southeast 161 185 13,000  Level Jacksonville Center
03:46PM 31.9789 -84.4969 123° Southeast 166 191 13,000  Level Jacksonville Center
03:47PM 31.9525 -84.4497 123° Southeast 166 191 13,100  Climbing Jacksonville Center
03:48PM 31.9300 -84.4031 120° Southeast 171 197 13,000 -60 Descending Jacksonville Center
03:49PM 31.9033 -84.3561 124° Southeast 171 197 13,000  Level Jacksonville Center
03:50PM 31.8789 -84.3067 120° Southeast 171 197 13,000  Level Jacksonville Center
03:51PM 31.8522 -84.2597 124° Southeast 171 197 13,000  Level Jacksonville Center
03:52PM 31.8297 -84.2131 120° Southeast 171 197 13,000  Level Jacksonville Center
03:53PM 31.8053 -84.1661 121° Southeast 176 203 13,000  Level Jacksonville Center
03:54PM 31.7786 -84.1194 124° Southeast 176 203 13,000  Level Jacksonville Center
03:55PM 31.7539 -84.0728 122° Southeast 176 203 13,000  Level Jacksonville Center
03:56PM 31.7292 -84.0261 122° Southeast 176 203 13,100  Climbing Jacksonville Center
03:57PM 31.7067 -83.9867 124° Southeast 169 194 13,000 -120 Descending Jacksonville Center
03:57PM 31.6903 -83.9572 123° Southeast 169 194 13,000 60 Level Jacksonville Center
03:58PM 31.6778 -83.9350 123° Southeast 171 197 13,100 60 Climbing Jacksonville Center
03:59PM 31.6533 -83.8858 120° Southeast 171 197 13,100 -60 Level Jacksonville Center
04:00PM 31.6306 -83.8394 120° Southeast 177 204 13,000  Descending Jacksonville Center
04:00PM 31.6119 -83.8172 135° Southeast 173 199 13,100 60 Climbing Jacksonville Center
04:01PM 31.6039 -83.7950 113° Southeast 177 204 13,100  Level Jacksonville Center
04:01PM 31.5872 -83.7681 126° Southeast 171 197 13,100  Level Jacksonville Center
04:02PM 31.5606 -83.7217 124° Southeast 172 198 13,100  Level Jacksonville Center
04:03PM 31.5356 -83.6725 121° Southeast 172 198 13,100  Level Jacksonville Center
04:04PM 31.5108 -83.6261 122° Southeast 170 196 13,100  Level Jacksonville Center
04:05PM 31.4842 -83.5772 123° Southeast 171 197 13,100  Level Jacksonville Center
04:07PM 31.4592 -83.5283 121° Southeast 170 196 13,100  Level Jacksonville Center
04:08PM 31.4428 -83.4794 111° Southeast 167 192 13,100  Level Jacksonville Center
04:09PM 31.4306 -83.4233 104° East 169 194 13,100  Level Jacksonville Center
04:10PM 31.4203 -83.3722 103° East 169 194 13,100  Level Jacksonville Center
04:11PM 31.4100 -83.3161 102° East 169 194 13,100  Level Jacksonville Center
04:12PM 31.3808 -83.2769 131° Southeast 164 189 13,100  Level Jacksonville Center
04:13PM 31.3539 -83.2283 123° Southeast 166 191 13,100  Level Jacksonville Center
04:14PM 31.3247 -83.1869 130° Southeast 169 194 13,100  Level Jacksonville Center
04:15PM 31.2997 -83.1406 122° Southeast 170 196 13,100  Level Jacksonville Center
04:16PM 31.2728 -83.0967 126° Southeast 168 193 13,100  Level Jacksonville Center
04:17PM 31.2456 -83.0481 123° Southeast 167 192 13,100  Level Jacksonville Center
04:18PM 31.2269 -83.0092 119° Southeast 166 191 13,100  Level Jacksonville Center
04:19PM 31.2019 -82.9656 124° Southeast 166 191 13,100  Level Jacksonville Center
04:20PM 31.1747 -82.9217 126° Southeast 166 191 13,100  Level Jacksonville Center
04:21PM 31.1497 -82.8781 124° Southeast 166 191 13,100  Level Jacksonville Center
04:22PM 31.1225 -82.8344 126° Southeast 166 191 13,100  Level Jacksonville Center
04:23PM 31.0994 -82.7883 120° Southeast 172 198 13,100 -60 Level Jacksonville Center
04:24PM 31.0661 -82.7447 132° Southeast 166 191 13,000 -60 Descending Jacksonville Center
04:25PM 31.0411 -82.6986 122° Southeast 161 185 13,000  Level Jacksonville Center
04:26PM 31.0158 -82.6550 124° Southeast 161 185 13,000  Level Jacksonville Center
04:27PM 30.9886 -82.6164 129° Southeast 161 185 13,000  Level Jacksonville Center
04:28PM 30.9656 -82.5703 120° Southeast 161 185 13,000 -300 Level Jacksonville Center
04:29PM 30.9383 -82.5269 126° Southeast 161 185 12,400 -600 Descending Jacksonville Center
04:30PM 30.9111 -82.4786 123° Southeast 169 194 11,800 -600 Descending Jacksonville Center
04:31PM 30.8775 -82.4350 132° Southeast 174 200 11,200 -600 Descending Jacksonville Center
04:32PM 30.8522 -82.3892 123° Southeast 180 207 10,600 -600 Descending Jacksonville Center
04:33PM 30.8583 -82.3264 84° East 175 201 10,000 -600 Descending Jacksonville Center
04:34PM 30.8664 -82.2706 80° East 170 196 9,400 -600 Descending Jacksonville Center
04:35PM 30.8597 -82.2222 99° East 165 190 8,800 -600 Descending Jacksonville Center
04:36PM 30.8283 -82.1836 133° Southeast 148 170 8,200 -600 Descending Jacksonville Center
04:37PM 30.8008 -82.1428 128° Southeast 153 176 7,600 -600 Descending Jacksonville Center
04:38PM 30.7756 -82.1019 126° Southeast 153 176 7,000 -660 Descending Jacksonville Center
04:39PM 30.7503 -82.0633 127° Southeast 153 176 6,300 -600 Descending Jacksonville Center
04:40PM 30.7122 -82.0058 128° Southeast 151 174 5,500 -600 Descending Jacksonville Center
04:41PM 30.6869 -81.9697 129° Southeast 149 171 4,800 -660 Descending Jacksonville Center
04:42PM 30.6575 -81.9267 128° Southeast 142 163 4,200 -360 Descending Jacksonville Center
04:43PM 30.6300 -81.8931 134° Southeast 135 155 4,000 -120 Descending Jacksonville Center
04:44PM 30.6069 -81.8644 133° Southeast 132 152 4,000 -60 Level Jacksonville Center
04:45PM 30.5836 -81.8308 129° Southeast 129 148 3,900 -60 Descending Jacksonville Center
04:46PM 30.5625 -81.8044 133° Southeast 121 139 3,900  Level Jacksonville Center
04:47PM 30.5372 -81.7736 134° Southeast 127 146 3,900  Level Jacksonville Center
04:48PM 30.5139 -81.7472 136° Southeast 124 143 3,900  Level Jacksonville Center
04:49PM 30.4908 -81.7139 129° Southeast 121 139 4,000  Climbing Jacksonville Center
04:50PM 30.4697 -81.6850 130° Southeast 132 152 4,000 -300 Level Jacksonville Center
04:51PM 30.4442 -81.6542 134° Southeast 129 148 3,400 -660 Descending Jacksonville Center
04:52PM 30.4167 -81.6183 132° Southeast 127 146 2,600 -780 Descending Jacksonville Center
04:53PM 30.3978 -81.5919 130° Southeast 101 116 1,800 -660 Descending Jacksonville Center
04:54PM 30.3808 -81.5706 133° Southeast 101 116 1,300 -600 Descending Jacksonville Center
04:55PM 30.3594 -81.5397 129° Southeast 112 129 600 -720 Descending Jacksonville Center
04:57PM 30.3363 -81.5144 115° Southeast  Level Estimated
05:04PM 30.3363 -81.5144 115° Southeast  Level Estimated